sensor_id;sensor_type;location;lat;lon;timestamp;temperature;humidity
39849;DHT22;25518;47.878;15.914;2022-10-15T00:00:29;8.90;99.90
39849;DHT22;25518;47.878;15.914;2022-10-15T00:02:55;8.80;99.90
39849;DHT22;25518;47.878;15.914;2022-10-15T00:05:22;8.90;99.90
39849;DHT22;25518;47.878;15.914;2022-10-15T00:07:48;8.90;99.90
39849;DHT22;25518;47.878;15.914;2022-10-15T00:10:15;8.90;99.90
39849;DHT22;25518;47.878;15.914;2022-10-15T00:12:41;8.90;99.90
39849;DHT22;25518;47.878;15.914;2022-10-15T00:15:09;8.80;99.90
39849;DHT22;25518;47.878;15.914;2022-10-15T00:17:36;8.80;99.90
39849;DHT22;25518;47.878;15.914;2022-10-15T00:20:08;8.90;99.90
39849;DHT22;25518;47.878;15.914;2022-10-15T00:22:35;8.90;99.90
39849;DHT22;25518;47.878;15.914;2022-10-15T00:25:03;8.90;99.90
39849;DHT22;25518;47.878;15.914;2022-10-15T00:27:29;8.80;99.90
39849;DHT22;25518;47.878;15.914;2022-10-15T00:29:56;8.80;99.90
39849;DHT22;25518;47.878;15.914;2022-10-15T00:32:25;8.80;99.90
39849;DHT22;25518;47.878;15.914;2022-10-15T00:34:51;8.90;99.90
39849;DHT22;25518;47.878;15.914;2022-10-15T00:37:17;8.80;99.90
39849;DHT22;25518;47.878;15.914;2022-10-15T00:39:45;8.90;99.90
39849;DHT22;25518;47.878;15.914;2022-10-15T00:42:11;8.90;99.90
39849;DHT22;25518;47.878;15.914;2022-10-15T00:44:56;8.90;99.90
39849;DHT22;25518;47.878;15.914;2022-10-15T00:47:26;8.80;99.90
39849;DHT22;25518;47.878;15.914;2022-10-15T00:50:13;8.90;99.90
39849;DHT22;25518;47.878;15.914;2022-10-15T00:53:01;8.90;99.90
39849;DHT22;25518;47.878;15.914;2022-10-15T00:55:32;8.90;99.90
39849;DHT22;25518;47.878;15.914;2022-10-15T00:58:04;9.00;99.90
39849;DHT22;25518;47.878;15.914;2022-10-15T01:00:32;9.00;99.90
39849;DHT22;25518;47.878;15.914;2022-10-15T01:02:58;8.40;99.90
39849;DHT22;25518;47.878;15.914;2022-10-15T01:05:24;9.00;99.90
39849;DHT22;25518;47.878;15.914;2022-10-15T01:07:51;8.90;99.90
39849;DHT22;25518;47.878;15.914;2022-10-15T01:10:17;9.00;99.90
39849;DHT22;25518;47.878;15.914;2022-10-15T01:12:56;8.90;99.90
39849;DHT22;25518;47.878;15.914;2022-10-15T01:15:44;9.00;99.90
39849;DHT22;25518;47.878;15.914;2022-10-15T01:18:35;9.10;99.90
39849;DHT22;25518;47.878;15.914;2022-10-15T01:26:40;9.10;99.90
39849;DHT22;25518;47.878;15.914;2022-10-15T01:32:31;8.90;99.90
39849;DHT22;25518;47.878;15.914;2022-10-15T01:37:19;8.90;99.90
39849;DHT22;25518;47.878;15.914;2022-10-15T01:40:00;8.90;99.90
39849;DHT22;25518;47.878;15.914;2022-10-15T01:42:43;8.90;99.90
39849;DHT22;25518;47.878;15.914;2022-10-15T01:45:18;8.90;99.90
39849;DHT22;25518;47.878;15.914;2022-10-15T01:47:50;8.90;99.90
39849;DHT22;25518;47.878;15.914;2022-10-15T01:50:19;8.70;99.90
39849;DHT22;25518;47.878;15.914;2022-10-15T01:52:48;8.60;99.90
39849;DHT22;25518;47.878;15.914;2022-10-15T01:55:18;8.60;99.90
39849;DHT22;25518;47.878;15.914;2022-10-15T01:57:46;8.50;99.90
39849;DHT22;25518;47.878;15.914;2022-10-15T02:00:13;8.30;99.90
39849;DHT22;25518;47.878;15.914;2022-10-15T02:02:40;8.20;99.90
39849;DHT22;25518;47.878;15.914;2022-10-15T02:05:11;8.20;99.90
39849;DHT22;25518;47.878;15.914;2022-10-15T02:10:13;8.40;99.90
39849;DHT22;25518;47.878;15.914;2022-10-15T02:16:10;8.10;99.90
39849;DHT22;25518;47.878;15.914;2022-10-15T02:18:35;8.00;99.90
39849;DHT22;25518;47.878;15.914;2022-10-15T02:23:57;8.40;99.90
39849;DHT22;25518;47.878;15.914;2022-10-15T02:26:28;8.30;99.90
39849;DHT22;25518;47.878;15.914;2022-10-15T02:28:57;8.40;99.90
39849;DHT22;25518;47.878;15.914;2022-10-15T02:31:25;8.50;99.90
39849;DHT22;25518;47.878;15.914;2022-10-15T02:33:57;8.60;99.90
39849;DHT22;25518;47.878;15.914;2022-10-15T02:36:26;8.60;99.90
39849;DHT22;25518;47.878;15.914;2022-10-15T02:38:54;8.70;99.90
39849;DHT22;25518;47.878;15.914;2022-10-15T02:41:22;7.20;99.90
39849;DHT22;25518;47.878;15.914;2022-10-15T02:43:48;8.70;99.90
39849;DHT22;25518;47.878;15.914;2022-10-15T02:46:15;8.80;99.90
39849;DHT22;25518;47.878;15.914;2022-10-15T02:48:42;8.80;99.90
39849;DHT22;25518;47.878;15.914;2022-10-15T02:51:08;8.80;99.90
39849;DHT22;25518;47.878;15.914;2022-10-15T02:53:34;8.80;99.90
39849;DHT22;25518;47.878;15.914;2022-10-15T02:56:00;8.80;99.90
39849;DHT22;25518;47.878;15.914;2022-10-15T02:58:26;8.90;99.90
39849;DHT22;25518;47.878;15.914;2022-10-15T03:00:54;8.90;99.90
39849;DHT22;25518;47.878;15.914;2022-10-15T03:17:54;8.80;99.90
39849;DHT22;25518;47.878;15.914;2022-10-15T03:20:20;8.80;99.90
39849;DHT22;25518;47.878;15.914;2022-10-15T03:22:46;8.80;99.90
39849;DHT22;25518;47.878;15.914;2022-10-15T03:25:12;8.80;99.90
39849;DHT22;25518;47.878;15.914;2022-10-15T03:27:38;8.80;99.90
39849;DHT22;25518;47.878;15.914;2022-10-15T03:30:04;8.80;99.90
39849;DHT22;25518;47.878;15.914;2022-10-15T03:32:30;8.90;99.90
39849;DHT22;25518;47.878;15.914;2022-10-15T03:34:56;8.80;99.90
39849;DHT22;25518;47.878;15.914;2022-10-15T03:37:22;8.90;99.90
39849;DHT22;25518;47.878;15.914;2022-10-15T03:39:48;8.90;99.90
39849;DHT22;25518;47.878;15.914;2022-10-15T03:42:14;8.90;99.90
39849;DHT22;25518;47.878;15.914;2022-10-15T03:44:40;8.70;99.90
39849;DHT22;25518;47.878;15.914;2022-10-15T03:47:06;8.20;99.90
39849;DHT22;25518;47.878;15.914;2022-10-15T03:49:32;8.80;99.90
39849;DHT22;25518;47.878;15.914;2022-10-15T03:51:58;8.70;99.90
39849;DHT22;25518;47.878;15.914;2022-10-15T03:54:24;8.70;99.90
39849;DHT22;25518;47.878;15.914;2022-10-15T03:56:51;8.80;99.90
39849;DHT22;25518;47.878;15.914;2022-10-15T03:59:16;8.80;99.90
39849;DHT22;25518;47.878;15.914;2022-10-15T04:01:43;8.80;99.90
39849;DHT22;25518;47.878;15.914;2022-10-15T04:04:11;8.80;99.90
39849;DHT22;25518;47.878;15.914;2022-10-15T04:06:38;8.90;99.90
39849;DHT22;25518;47.878;15.914;2022-10-15T04:09:05;8.80;99.90
39849;DHT22;25518;47.878;15.914;2022-10-15T04:11:31;8.90;99.90
39849;DHT22;25518;47.878;15.914;2022-10-15T04:13:57;9.00;99.90
39849;DHT22;25518;47.878;15.914;2022-10-15T04:16:23;8.60;99.90
39849;DHT22;25518;47.878;15.914;2022-10-15T04:18:48;9.00;99.90
39849;DHT22;25518;47.878;15.914;2022-10-15T04:21:14;9.10;99.90
39849;DHT22;25518;47.878;15.914;2022-10-15T04:23:40;9.10;99.90
39849;DHT22;25518;47.878;15.914;2022-10-15T04:26:06;9.10;99.90
39849;DHT22;25518;47.878;15.914;2022-10-15T04:28:32;8.40;99.90
39849;DHT22;25518;47.878;15.914;2022-10-15T04:30:59;9.00;99.90
39849;DHT22;25518;47.878;15.914;2022-10-15T04:33:26;9.10;99.90
39849;DHT22;25518;47.878;15.914;2022-10-15T04:36:03;9.10;99.90
39849;DHT22;25518;47.878;15.914;2022-10-15T04:38:29;9.10;99.90
39849;DHT22;25518;47.878;15.914;2022-10-15T04:41:11;8.10;99.90
39849;DHT22;25518;47.878;15.914;2022-10-15T04:43:38;9.10;99.90
39849;DHT22;25518;47.878;15.914;2022-10-15T04:46:06;9.00;99.90
39849;DHT22;25518;47.878;15.914;2022-10-15T04:48:35;8.70;99.90
39849;DHT22;25518;47.878;15.914;2022-10-15T04:51:10;9.10;99.90
39849;DHT22;25518;47.878;15.914;2022-10-15T04:53:37;9.10;99.90
39849;DHT22;25518;47.878;15.914;2022-10-15T04:56:05;9.00;99.90
39849;DHT22;25518;47.878;15.914;2022-10-15T04:58:33;9.00;99.90
39849;DHT22;25518;47.878;15.914;2022-10-15T05:01:02;9.00;99.90
39849;DHT22;25518;47.878;15.914;2022-10-15T05:03:29;9.00;99.90
39849;DHT22;25518;47.878;15.914;2022-10-15T05:06:01;9.00;99.90
39849;DHT22;25518;47.878;15.914;2022-10-15T05:08:29;8.90;99.90
39849;DHT22;25518;47.878;15.914;2022-10-15T05:11:00;9.00;99.90
39849;DHT22;25518;47.878;15.914;2022-10-15T05:13:27;9.10;99.90
39849;DHT22;25518;47.878;15.914;2022-10-15T05:15:53;9.00;99.90
39849;DHT22;25518;47.878;15.914;2022-10-15T05:18:19;9.00;99.90
39849;DHT22;25518;47.878;15.914;2022-10-15T05:20:45;9.00;99.90
39849;DHT22;25518;47.878;15.914;2022-10-15T05:23:11;9.00;99.90
39849;DHT22;25518;47.878;15.914;2022-10-15T05:25:37;8.90;99.90
39849;DHT22;25518;47.878;15.914;2022-10-15T05:28:03;8.80;99.90
39849;DHT22;25518;47.878;15.914;2022-10-15T05:30:31;8.80;99.90
39849;DHT22;25518;47.878;15.914;2022-10-15T05:32:57;8.80;99.90
39849;DHT22;25518;47.878;15.914;2022-10-15T05:35:23;8.90;99.90
39849;DHT22;25518;47.878;15.914;2022-10-15T05:37:50;8.90;99.90
39849;DHT22;25518;47.878;15.914;2022-10-15T05:40:16;8.90;99.90
39849;DHT22;25518;47.878;15.914;2022-10-15T05:42:42;9.10;99.90
39849;DHT22;25518;47.878;15.914;2022-10-15T05:45:08;9.10;99.90
39849;DHT22;25518;47.878;15.914;2022-10-15T05:47:34;9.10;99.90
39849;DHT22;25518;47.878;15.914;2022-10-15T05:50:00;9.00;99.90
39849;DHT22;25518;47.878;15.914;2022-10-15T05:52:26;9.20;99.90
39849;DHT22;25518;47.878;15.914;2022-10-15T05:54:52;9.10;99.90
39849;DHT22;25518;47.878;15.914;2022-10-15T05:57:18;9.20;99.90
39849;DHT22;25518;47.878;15.914;2022-10-15T05:59:44;9.20;99.90
39849;DHT22;25518;47.878;15.914;2022-10-15T06:02:10;9.10;99.90
39849;DHT22;25518;47.878;15.914;2022-10-15T06:04:41;9.20;99.90
39849;DHT22;25518;47.878;15.914;2022-10-15T06:07:08;9.20;99.90
39849;DHT22;25518;47.878;15.914;2022-10-15T06:09:34;9.20;99.90
39849;DHT22;25518;47.878;15.914;2022-10-15T06:11:59;9.30;99.90
39849;DHT22;25518;47.878;15.914;2022-10-15T06:14:25;9.30;99.90
39849;DHT22;25518;47.878;15.914;2022-10-15T06:16:51;9.30;99.90
39849;DHT22;25518;47.878;15.914;2022-10-15T06:19:19;9.30;99.90
39849;DHT22;25518;47.878;15.914;2022-10-15T06:21:46;9.20;99.90
39849;DHT22;25518;47.878;15.914;2022-10-15T06:24:12;9.30;99.90
39849;DHT22;25518;47.878;15.914;2022-10-15T06:26:38;9.30;99.90
39849;DHT22;25518;47.878;15.914;2022-10-15T06:29:04;9.20;99.90
39849;DHT22;25518;47.878;15.914;2022-10-15T06:31:30;9.20;99.90
39849;DHT22;25518;47.878;15.914;2022-10-15T06:33:56;9.20;99.90
39849;DHT22;25518;47.878;15.914;2022-10-15T06:36:23;9.40;99.90
39849;DHT22;25518;47.878;15.914;2022-10-15T06:38:50;9.40;99.90
39849;DHT22;25518;47.878;15.914;2022-10-15T06:41:16;9.40;99.90
39849;DHT22;25518;47.878;15.914;2022-10-15T06:43:42;9.50;99.90
39849;DHT22;25518;47.878;15.914;2022-10-15T06:46:09;9.60;99.90
39849;DHT22;25518;47.878;15.914;2022-10-15T06:48:35;9.70;99.90
39849;DHT22;25518;47.878;15.914;2022-10-15T06:51:03;9.70;99.90
39849;DHT22;25518;47.878;15.914;2022-10-15T06:53:30;9.80;99.90
39849;DHT22;25518;47.878;15.914;2022-10-15T06:56:01;9.70;99.90
39849;DHT22;25518;47.878;15.914;2022-10-15T06:58:28;9.80;99.90
39849;DHT22;25518;47.878;15.914;2022-10-15T07:01:04;9.70;99.90
39849;DHT22;25518;47.878;15.914;2022-10-15T07:03:31;9.70;99.90
39849;DHT22;25518;47.878;15.914;2022-10-15T07:06:02;9.70;99.90
39849;DHT22;25518;47.878;15.914;2022-10-15T07:08:28;9.80;99.90
39849;DHT22;25518;47.878;15.914;2022-10-15T07:10:54;9.80;99.90
39849;DHT22;25518;47.878;15.914;2022-10-15T07:13:20;9.80;99.90
39849;DHT22;25518;47.878;15.914;2022-10-15T07:15:45;9.90;99.90
39849;DHT22;25518;47.878;15.914;2022-10-15T07:18:14;10.00;99.90
39849;DHT22;25518;47.878;15.914;2022-10-15T07:20:40;10.00;99.90
39849;DHT22;25518;47.878;15.914;2022-10-15T07:23:05;10.00;99.90
39849;DHT22;25518;47.878;15.914;2022-10-15T07:25:31;10.00;99.90
39849;DHT22;25518;47.878;15.914;2022-10-15T07:27:57;10.00;99.90
39849;DHT22;25518;47.878;15.914;2022-10-15T07:30:24;10.00;99.90
39849;DHT22;25518;47.878;15.914;2022-10-15T07:32:54;9.90;99.90
39849;DHT22;25518;47.878;15.914;2022-10-15T07:35:21;10.00;99.90
39849;DHT22;25518;47.878;15.914;2022-10-15T07:37:47;10.00;99.90
39849;DHT22;25518;47.878;15.914;2022-10-15T07:40:16;9.90;99.90
39849;DHT22;25518;47.878;15.914;2022-10-15T07:42:42;10.10;99.90
39849;DHT22;25518;47.878;15.914;2022-10-15T07:45:09;10.00;99.90
39849;DHT22;25518;47.878;15.914;2022-10-15T07:47:35;9.90;99.90
39849;DHT22;25518;47.878;15.914;2022-10-15T07:50:01;10.10;99.90
39849;DHT22;25518;47.878;15.914;2022-10-15T07:52:27;10.10;99.90
39849;DHT22;25518;47.878;15.914;2022-10-15T07:54:53;10.10;99.90
39849;DHT22;25518;47.878;15.914;2022-10-15T07:57:19;10.20;99.90
39849;DHT22;25518;47.878;15.914;2022-10-15T07:59:45;9.40;99.90
39849;DHT22;25518;47.878;15.914;2022-10-15T08:02:15;10.40;99.90
39849;DHT22;25518;47.878;15.914;2022-10-15T08:04:41;10.50;99.90
39849;DHT22;25518;47.878;15.914;2022-10-15T08:07:07;10.50;99.90
39849;DHT22;25518;47.878;15.914;2022-10-15T08:09:33;10.50;99.90
39849;DHT22;25518;47.878;15.914;2022-10-15T08:11:59;10.50;99.90
39849;DHT22;25518;47.878;15.914;2022-10-15T08:14:25;10.60;99.90
39849;DHT22;25518;47.878;15.914;2022-10-15T08:16:51;10.70;99.90
39849;DHT22;25518;47.878;15.914;2022-10-15T08:19:17;10.70;99.90
39849;DHT22;25518;47.878;15.914;2022-10-15T08:21:44;10.80;99.90
39849;DHT22;25518;47.878;15.914;2022-10-15T08:24:11;10.80;99.90
39849;DHT22;25518;47.878;15.914;2022-10-15T08:26:37;10.90;99.90
39849;DHT22;25518;47.878;15.914;2022-10-15T08:29:04;10.80;99.90
39849;DHT22;25518;47.878;15.914;2022-10-15T08:31:30;10.90;99.90
39849;DHT22;25518;47.878;15.914;2022-10-15T08:33:59;10.90;99.90
39849;DHT22;25518;47.878;15.914;2022-10-15T08:36:25;11.00;99.90
39849;DHT22;25518;47.878;15.914;2022-10-15T08:38:51;11.10;99.90
39849;DHT22;25518;47.878;15.914;2022-10-15T08:41:25;11.10;99.90
39849;DHT22;25518;47.878;15.914;2022-10-15T08:43:52;11.20;99.90
39849;DHT22;25518;47.878;15.914;2022-10-15T08:46:24;11.20;99.90
39849;DHT22;25518;47.878;15.914;2022-10-15T08:48:55;11.30;99.90
39849;DHT22;25518;47.878;15.914;2022-10-15T08:51:25;11.40;99.90
